sensor_id;sensor_type;location;lat;lon;timestamp;P1;durP1;ratioP1;P2;durP2;ratioP2
60614;SDS011;46444;45.590;5.284;2023-03-20T00:00:41;130.13;;;123.68;;
60614;SDS011;46444;45.590;5.284;2023-03-20T00:03:15;134.57;;;127.97;;
60614;SDS011;46444;45.590;5.284;2023-03-20T00:05:41;134.90;;;128.20;;
60614;SDS011;46444;45.590;5.284;2023-03-20T00:08:07;142.20;;;135.20;;
60614;SDS011;46444;45.590;5.284;2023-03-20T00:10:37;131.88;;;125.38;;
60614;SDS011;46444;45.590;5.284;2023-03-20T00:13:10;129.65;;;123.30;;
60614;SDS011;46444;45.590;5.284;2023-03-20T00:15:40;126.18;;;119.93;;
60614;SDS011;46444;45.590;5.284;2023-03-20T00:20:53;130.57;;;124.18;;
60614;SDS011;46444;45.590;5.284;2023-03-20T00:23:25;123.32;;;117.10;;
60614;SDS011;46444;45.590;5.284;2023-03-20T00:25:51;120.50;;;114.60;;
60614;SDS011;46444;45.590;5.284;2023-03-20T00:31:04;128.57;;;122.30;;
60614;SDS011;46444;45.590;5.284;2023-03-20T00:33:48;126.97;;;120.53;;
60614;SDS011;46444;45.590;5.284;2023-03-20T00:36:14;124.07;;;118.00;;
60614;SDS011;46444;45.590;5.284;2023-03-20T00:38:39;119.32;;;113.53;;
60614;SDS011;46444;45.590;5.284;2023-03-20T00:41:52;134.85;;;128.18;;
60614;SDS011;46444;45.590;5.284;2023-03-20T00:44:53;122.35;;;116.28;;
60614;SDS011;46444;45.590;5.284;2023-03-20T00:47:19;124.70;;;118.45;;
60614;SDS011;46444;45.590;5.284;2023-03-20T00:49:48;123.85;;;117.68;;
60614;SDS011;46444;45.590;5.284;2023-03-20T00:52:36;142.75;;;135.40;;
60614;SDS011;46444;45.590;5.284;2023-03-20T00:55:01;133.90;;;127.32;;
60614;SDS011;46444;45.590;5.284;2023-03-20T00:57:58;147.48;;;140.30;;
60614;SDS011;46444;45.590;5.284;2023-03-20T01:03:12;163.82;;;155.90;;
60614;SDS011;46444;45.590;5.284;2023-03-20T01:05:43;167.43;;;159.23;;
60614;SDS011;46444;45.590;5.284;2023-03-20T01:08:13;177.05;;;168.32;;
60614;SDS011;46444;45.590;5.284;2023-03-20T01:10:43;167.48;;;159.30;;
60614;SDS011;46444;45.590;5.284;2023-03-20T01:13:14;187.30;;;178.32;;
60614;SDS011;46444;45.590;5.284;2023-03-20T01:15:45;189.88;;;180.77;;
60614;SDS011;46444;45.590;5.284;2023-03-20T01:18:16;196.95;;;187.43;;
60614;SDS011;46444;45.590;5.284;2023-03-20T01:21:07;159.50;;;151.77;;
60614;SDS011;46444;45.590;5.284;2023-03-20T01:27:07;138.43;;;131.75;;
60614;SDS011;46444;45.590;5.284;2023-03-20T01:29:39;158.25;;;150.60;;
60614;SDS011;46444;45.590;5.284;2023-03-20T01:32:08;163.52;;;155.63;;
60614;SDS011;46444;45.590;5.284;2023-03-20T01:34:39;183.15;;;174.27;;
60614;SDS011;46444;45.590;5.284;2023-03-20T01:37:08;177.45;;;169.00;;
60614;SDS011;46444;45.590;5.284;2023-03-20T01:39:38;152.88;;;145.48;;
60614;SDS011;46444;45.590;5.284;2023-03-20T01:42:04;167.70;;;159.50;;
60614;SDS011;46444;45.590;5.284;2023-03-20T01:44:34;149.68;;;142.32;;
60614;SDS011;46444;45.590;5.284;2023-03-20T01:47:16;136.67;;;129.90;;
60614;SDS011;46444;45.590;5.284;2023-03-20T01:53:12;134.77;;;128.18;;
60614;SDS011;46444;45.590;5.284;2023-03-20T01:55:53;128.10;;;121.78;;
60614;SDS011;46444;45.590;5.284;2023-03-20T01:58:23;149.88;;;142.63;;
60614;SDS011;46444;45.590;5.284;2023-03-20T02:00:52;130.30;;;124.00;;
60614;SDS011;46444;45.590;5.284;2023-03-20T02:03:18;125.80;;;119.63;;
60614;SDS011;46444;45.590;5.284;2023-03-20T02:05:45;137.02;;;130.30;;
60614;SDS011;46444;45.590;5.284;2023-03-20T02:08:31;138.93;;;131.90;;
60614;SDS011;46444;45.590;5.284;2023-03-20T02:10:59;131.95;;;125.45;;
60614;SDS011;46444;45.590;5.284;2023-03-20T02:13:35;131.18;;;124.70;;
60614;SDS011;46444;45.590;5.284;2023-03-20T02:16:06;137.05;;;130.30;;
60614;SDS011;46444;45.590;5.284;2023-03-20T02:18:35;128.38;;;122.03;;
60614;SDS011;46444;45.590;5.284;2023-03-20T02:32:13;125.90;;;119.57;;
60614;SDS011;46444;45.590;5.284;2023-03-20T02:45:49;137.48;;;130.80;;
60614;SDS011;46444;45.590;5.284;2023-03-20T02:51:32;143.35;;;136.25;;
60614;SDS011;46444;45.590;5.284;2023-03-20T03:17:53;161.60;;;153.57;;
60614;SDS011;46444;45.590;5.284;2023-03-20T03:30:17;144.23;;;136.85;;
60614;SDS011;46444;45.590;5.284;2023-03-20T03:46:49;125.63;;;119.45;;
60614;SDS011;46444;45.590;5.284;2023-03-20T03:49:25;124.38;;;118.22;;
60614;SDS011;46444;45.590;5.284;2023-03-20T03:52:14;57.08;;;54.20;;
60614;SDS011;46444;45.590;5.284;2023-03-20T03:54:44;52.20;;;49.47;;
60614;SDS011;46444;45.590;5.284;2023-03-20T03:57:19;54.03;;;51.28;;
60614;SDS011;46444;45.590;5.284;2023-03-20T03:59:51;64.22;;;60.80;;
60614;SDS011;46444;45.590;5.284;2023-03-20T04:02:19;62.75;;;59.45;;
60614;SDS011;46444;45.590;5.284;2023-03-20T04:04:48;70.07;;;66.47;;
60614;SDS011;46444;45.590;5.284;2023-03-20T04:07:16;72.45;;;68.70;;
60614;SDS011;46444;45.590;5.284;2023-03-20T04:09:42;76.50;;;72.68;;
60614;SDS011;46444;45.590;5.284;2023-03-20T04:12:49;67.82;;;64.30;;
60614;SDS011;46444;45.590;5.284;2023-03-20T04:15:03;72.72;;;69.07;;
60614;SDS011;46444;45.590;5.284;2023-03-20T04:17:30;82.28;;;78.22;;
60614;SDS011;46444;45.590;5.284;2023-03-20T04:19:55;70.28;;;66.65;;
60614;SDS011;46444;45.590;5.284;2023-03-20T04:22:21;75.63;;;71.93;;
60614;SDS011;46444;45.590;5.284;2023-03-20T04:24:47;110.38;;;104.88;;
60614;SDS011;46444;45.590;5.284;2023-03-20T04:27:13;112.72;;;106.95;;
60614;SDS011;46444;45.590;5.284;2023-03-20T04:29:39;88.80;;;84.38;;
60614;SDS011;46444;45.590;5.284;2023-03-20T04:32:05;118.15;;;112.20;;
60614;SDS011;46444;45.590;5.284;2023-03-20T04:34:31;124.53;;;118.32;;
60614;SDS011;46444;45.590;5.284;2023-03-20T04:36:57;118.95;;;112.70;;
60614;SDS011;46444;45.590;5.284;2023-03-20T04:39:25;122.85;;;116.85;;
60614;SDS011;46444;45.590;5.284;2023-03-20T04:41:57;112.82;;;107.35;;
60614;SDS011;46444;45.590;5.284;2023-03-20T04:44:22;105.45;;;100.30;;
60614;SDS011;46444;45.590;5.284;2023-03-20T04:46:50;119.15;;;113.38;;
60614;SDS011;46444;45.590;5.284;2023-03-20T05:03:33;118.05;;;112.35;;
60614;SDS011;46444;45.590;5.284;2023-03-20T05:06:08;125.47;;;119.40;;
60614;SDS011;46444;45.590;5.284;2023-03-20T05:08:37;110.38;;;105.22;;
60614;SDS011;46444;45.590;5.284;2023-03-20T05:11:03;115.15;;;109.75;;
60614;SDS011;46444;45.590;5.284;2023-03-20T05:13:28;120.72;;;115.00;;
60614;SDS011;46444;45.590;5.284;2023-03-20T05:15:54;113.60;;;107.95;;
60614;SDS011;46444;45.590;5.284;2023-03-20T05:18:20;125.22;;;119.07;;
60614;SDS011;46444;45.590;5.284;2023-03-20T05:20:52;105.38;;;100.22;;
60614;SDS011;46444;45.590;5.284;2023-03-20T05:23:23;104.78;;;99.47;;
60614;SDS011;46444;45.590;5.284;2023-03-20T05:25:49;111.78;;;106.43;;
60614;SDS011;46444;45.590;5.284;2023-03-20T05:28:14;118.05;;;112.30;;
60614;SDS011;46444;45.590;5.284;2023-03-20T05:30:40;129.48;;;123.38;;
60614;SDS011;46444;45.590;5.284;2023-03-20T05:33:06;121.75;;;115.93;;
60614;SDS011;46444;45.590;5.284;2023-03-20T05:35:32;121.70;;;115.97;;
60614;SDS011;46444;45.590;5.284;2023-03-20T05:38:50;112.65;;;107.20;;
60614;SDS011;46444;45.590;5.284;2023-03-20T05:47:53;120.55;;;114.80;;
60614;SDS011;46444;45.590;5.284;2023-03-20T05:50:18;108.05;;;102.88;;
60614;SDS011;46444;45.590;5.284;2023-03-20T05:55:56;109.35;;;104.10;;
60614;SDS011;46444;45.590;5.284;2023-03-20T05:58:22;109.88;;;104.60;;
60614;SDS011;46444;45.590;5.284;2023-03-20T06:00:47;123.03;;;117.05;;
60614;SDS011;46444;45.590;5.284;2023-03-20T06:03:13;109.00;;;103.80;;
60614;SDS011;46444;45.590;5.284;2023-03-20T06:05:38;118.43;;;112.68;;
60614;SDS011;46444;45.590;5.284;2023-03-20T06:08:04;158.77;;;144.63;;
60614;SDS011;46444;45.590;5.284;2023-03-20T06:10:30;105.60;;;100.22;;
60614;SDS011;46444;45.590;5.284;2023-03-20T06:12:56;118.07;;;112.10;;
60614;SDS011;46444;45.590;5.284;2023-03-20T06:15:24;117.13;;;111.43;;
60614;SDS011;46444;45.590;5.284;2023-03-20T06:17:50;114.68;;;108.97;;
60614;SDS011;46444;45.590;5.284;2023-03-20T06:20:16;118.15;;;112.30;;
60614;SDS011;46444;45.590;5.284;2023-03-20T06:22:41;110.80;;;105.38;;
60614;SDS011;46444;45.590;5.284;2023-03-20T06:25:07;112.05;;;106.63;;
60614;SDS011;46444;45.590;5.284;2023-03-20T06:27:32;118.72;;;112.95;;
60614;SDS011;46444;45.590;5.284;2023-03-20T06:29:58;117.57;;;111.78;;
60614;SDS011;46444;45.590;5.284;2023-03-20T06:32:23;114.82;;;109.07;;
60614;SDS011;46444;45.590;5.284;2023-03-20T06:34:49;115.95;;;110.30;;
60614;SDS011;46444;45.590;5.284;2023-03-20T06:37:14;117.32;;;111.50;;
60614;SDS011;46444;45.590;5.284;2023-03-20T06:39:39;120.32;;;114.25;;
60614;SDS011;46444;45.590;5.284;2023-03-20T06:42:05;99.55;;;94.55;;
60614;SDS011;46444;45.590;5.284;2023-03-20T06:44:31;110.75;;;105.25;;
60614;SDS011;46444;45.590;5.284;2023-03-20T06:46:56;126.70;;;120.38;;
60614;SDS011;46444;45.590;5.284;2023-03-20T06:49:21;125.05;;;118.88;;
60614;SDS011;46444;45.590;5.284;2023-03-20T06:51:47;118.63;;;112.68;;
60614;SDS011;46444;45.590;5.284;2023-03-20T06:54:12;138.70;;;131.80;;
60614;SDS011;46444;45.590;5.284;2023-03-20T06:56:38;140.75;;;133.93;;
60614;SDS011;46444;45.590;5.284;2023-03-20T06:59:03;115.88;;;110.03;;
60614;SDS011;46444;45.590;5.284;2023-03-20T07:01:29;131.77;;;125.32;;
60614;SDS011;46444;45.590;5.284;2023-03-20T07:03:54;136.55;;;129.77;;
60614;SDS011;46444;45.590;5.284;2023-03-20T07:06:20;208.43;;;198.75;;
60614;SDS011;46444;45.590;5.284;2023-03-20T07:08:45;202.57;;;192.25;;
60614;SDS011;46444;45.590;5.284;2023-03-20T07:11:11;220.93;;;210.50;;
60614;SDS011;46444;45.590;5.284;2023-03-20T07:13:36;157.70;;;149.93;;
60614;SDS011;46444;45.590;5.284;2023-03-20T07:16:02;122.43;;;116.47;;
60614;SDS011;46444;45.590;5.284;2023-03-20T07:18:28;112.07;;;106.45;;
60614;SDS011;46444;45.590;5.284;2023-03-20T07:20:56;128.50;;;122.30;;
60614;SDS011;46444;45.590;5.284;2023-03-20T07:23:25;114.35;;;108.70;;
60614;SDS011;46444;45.590;5.284;2023-03-20T07:25:51;122.47;;;116.32;;
60614;SDS011;46444;45.590;5.284;2023-03-20T07:28:16;126.63;;;120.18;;
60614;SDS011;46444;45.590;5.284;2023-03-20T07:30:42;118.07;;;112.13;;
60614;SDS011;46444;45.590;5.284;2023-03-20T07:33:07;109.07;;;103.55;;
60614;SDS011;46444;45.590;5.284;2023-03-20T07:35:32;131.32;;;124.80;;
60614;SDS011;46444;45.590;5.284;2023-03-20T07:37:58;112.47;;;106.82;;
60614;SDS011;46444;45.590;5.284;2023-03-20T07:40:23;114.80;;;108.80;;
60614;SDS011;46444;45.590;5.284;2023-03-20T07:42:49;108.68;;;103.13;;
60614;SDS011;46444;45.590;5.284;2023-03-20T07:45:14;126.13;;;119.82;;
60614;SDS011;46444;45.590;5.284;2023-03-20T07:47:42;116.20;;;110.63;;
60614;SDS011;46444;45.590;5.284;2023-03-20T07:50:08;116.47;;;110.78;;
60614;SDS011;46444;45.590;5.284;2023-03-20T07:52:33;113.25;;;107.55;;
60614;SDS011;46444;45.590;5.284;2023-03-20T07:54:59;117.60;;;111.88;;
60614;SDS011;46444;45.590;5.284;2023-03-20T07:57:24;119.95;;;113.95;;
60614;SDS011;46444;45.590;5.284;2023-03-20T07:59:49;115.10;;;108.90;;
60614;SDS011;46444;45.590;5.284;2023-03-20T08:02:15;136.50;;;129.45;;
60614;SDS011;46444;45.590;5.284;2023-03-20T08:04:42;116.50;;;110.80;;
60614;SDS011;46444;45.590;5.284;2023-03-20T08:07:08;119.00;;;113.13;;
60614;SDS011;46444;45.590;5.284;2023-03-20T08:09:33;131.70;;;125.07;;
60614;SDS011;46444;45.590;5.284;2023-03-20T08:11:58;140.60;;;133.77;;
60614;SDS011;46444;45.590;5.284;2023-03-20T08:14:24;141.30;;;134.25;;
60614;SDS011;46444;45.590;5.284;2023-03-20T08:16:49;129.35;;;122.65;;
60614;SDS011;46444;45.590;5.284;2023-03-20T08:19:15;122.40;;;116.45;;
60614;SDS011;46444;45.590;5.284;2023-03-20T08:21:40;114.57;;;108.72;;
60614;SDS011;46444;45.590;5.284;2023-03-20T08:24:05;116.78;;;111.03;;
60614;SDS011;46444;45.590;5.284;2023-03-20T08:26:31;121.28;;;115.32;;
60614;SDS011;46444;45.590;5.284;2023-03-20T08:28:57;125.55;;;119.43;;
60614;SDS011;46444;45.590;5.284;2023-03-20T08:31:23;107.35;;;101.95;;
60614;SDS011;46444;45.590;5.284;2023-03-20T08:33:49;115.43;;;109.68;;
60614;SDS011;46444;45.590;5.284;2023-03-20T08:36:14;96.05;;;91.30;;
60614;SDS011;46444;45.590;5.284;2023-03-20T08:38:43;105.85;;;100.72;;
60614;SDS011;46444;45.590;5.284;2023-03-20T08:41:08;103.65;;;98.35;;
60614;SDS011;46444;45.590;5.284;2023-03-20T08:43:34;92.90;;;88.35;;
60614;SDS011;46444;45.590;5.284;2023-03-20T08:46:00;104.00;;;98.88;;
60614;SDS011;46444;45.590;5.284;2023-03-20T08:48:25;94.75;;;89.95;;
60614;SDS011;46444;45.590;5.284;2023-03-20T08:50:51;94.88;;;89.88;;
60614;SDS011;46444;45.590;5.284;2023-03-20T08:53:16;90.50;;;85.97;;
60614;SDS011;46444;45.590;5.284;2023-03-20T08:55:48;82.63;;;78.47;;
60614;SDS011;46444;45.590;5.284;2023-03-20T08:58:15;92.35;;;87.70;;
60614;SDS011;46444;45.590;5.284;2023-03-20T09:00:40;124.57;;;118.50;;
60614;SDS011;46444;45.590;5.284;2023-03-20T09:03:06;160.32;;;152.57;;
60614;SDS011;46444;45.590;5.284;2023-03-20T09:05:32;132.85;;;126.25;;
60614;SDS011;46444;45.590;5.284;2023-03-20T09:08:00;150.93;;;143.55;;
60614;SDS011;46444;45.590;5.284;2023-03-20T09:10:26;128.73;;;121.90;;
60614;SDS011;46444;45.590;5.284;2023-03-20T09:12:51;123.88;;;117.65;;
60614;SDS011;46444;45.590;5.284;2023-03-20T09:15:16;62.03;;;58.58;;
60614;SDS011;46444;45.590;5.284;2023-03-20T09:17:42;85.20;;;80.80;;
60614;SDS011;46444;45.590;5.284;2023-03-20T09:20:07;111.13;;;105.70;;
60614;SDS011;46444;45.590;5.284;2023-03-20T09:22:33;129.57;;;123.22;;
60614;SDS011;46444;45.590;5.284;2023-03-20T09:24:58;116.82;;;111.00;;
60614;SDS011;46444;45.590;5.284;2023-03-20T09:27:24;85.20;;;80.90;;
60614;SDS011;46444;45.590;5.284;2023-03-20T09:29:49;56.72;;;53.63;;
60614;SDS011;46444;45.590;5.284;2023-03-20T09:32:15;105.60;;;100.38;;
60614;SDS011;46444;45.590;5.284;2023-03-20T09:34:40;82.60;;;78.45;;
60614;SDS011;46444;45.590;5.284;2023-03-20T09:37:05;80.05;;;76.00;;
60614;SDS011;46444;45.590;5.284;2023-03-20T09:39:31;103.45;;;98.32;;
60614;SDS011;46444;45.590;5.284;2023-03-20T09:41:59;44.60;;;42.30;;
60614;SDS011;46444;45.590;5.284;2023-03-20T09:47:34;23.67;;;22.35;;
60614;SDS011;46444;45.590;5.284;2023-03-20T09:50:10;15.48;;;14.65;;
60614;SDS011;46444;45.590;5.284;2023-03-20T09:53:00;18.40;;;17.17;;
60614;SDS011;46444;45.590;5.284;2023-03-20T09:56:07;14.43;;;13.57;;
60614;SDS011;46444;45.590;5.284;2023-03-20T09:58:40;15.68;;;14.77;;
60614;SDS011;46444;45.590;5.284;2023-03-20T10:01:06;17.35;;;15.95;;
60614;SDS011;46444;45.590;5.284;2023-03-20T10:03:42;22.95;;;21.65;;
60614;SDS011;46444;45.590;5.284;2023-03-20T10:06:19;14.05;;;13.10;;
60614;SDS011;46444;45.590;5.284;2023-03-20T10:08:45;14.30;;;13.40;;
60614;SDS011;46444;45.590;5.284;2023-03-20T10:19:23;17.05;;;15.98;;
60614;SDS011;46444;45.590;5.284;2023-03-20T10:22:35;12.57;;;11.65;;
60614;SDS011;46444;45.590;5.284;2023-03-20T10:27:23;6.60;;;6.10;;
60614;SDS011;46444;45.590;5.284;2023-03-20T10:32:48;11.80;;;10.80;;
60614;SDS011;46444;45.590;5.284;2023-03-20T10:35:30;13.10;;;12.07;;
60614;SDS011;46444;45.590;5.284;2023-03-20T10:40:50;14.18;;;13.27;;
60614;SDS011;46444;45.590;5.284;2023-03-20T10:43:22;24.92;;;23.65;;
60614;SDS011;46444;45.590;5.284;2023-03-20T10:46:03;7.55;;;7.05;;
60614;SDS011;46444;45.590;5.284;2023-03-20T10:48:32;8.98;;;8.48;;
60614;SDS011;46444;45.590;5.284;2023-03-20T10:51:00;9.68;;;9.07;;
60614;SDS011;46444;45.590;5.284;2023-03-20T10:56:26;15.30;;;14.27;;
60614;SDS011;46444;45.590;5.284;2023-03-20T10:58:58;13.63;;;12.73;;
60614;SDS011;46444;45.590;5.284;2023-03-20T11:01:27;12.98;;;12.15;;
60614;SDS011;46444;45.590;5.284;2023-03-20T11:03:53;11.35;;;10.70;;
60614;SDS011;46444;45.590;5.284;2023-03-20T11:06:21;11.13;;;10.27;;
60614;SDS011;46444;45.590;5.284;2023-03-20T11:08:56;8.80;;;8.30;;
60614;SDS011;46444;45.590;5.284;2023-03-20T11:11:33;5.57;;;5.18;;
60614;SDS011;46444;45.590;5.284;2023-03-20T11:14:04;5.60;;;5.20;;
60614;SDS011;46444;45.590;5.284;2023-03-20T11:16:34;5.00;;;4.50;;
60614;SDS011;46444;45.590;5.284;2023-03-20T11:19:06;5.28;;;4.90;;
60614;SDS011;46444;45.590;5.284;2023-03-20T11:21:35;5.55;;;5.15;;
60614;SDS011;46444;45.590;5.284;2023-03-20T11:25:19;7.05;;;6.60;;
60614;SDS011;46444;45.590;5.284;2023-03-20T11:27:13;6.70;;;6.13;;
60614;SDS011;46444;45.590;5.284;2023-03-20T11:29:40;8.43;;;7.85;;
60614;SDS011;46444;45.590;5.284;2023-03-20T11:32:10;9.98;;;8.80;;
60614;SDS011;46444;45.590;5.284;2023-03-20T11:35:15;7.90;;;7.30;;
60614;SDS011;46444;45.590;5.284;2023-03-20T11:37:47;9.13;;;8.63;;
60614;SDS011;46444;45.590;5.284;2023-03-20T11:45:26;6.38;;;5.55;;
60614;SDS011;46444;45.590;5.284;2023-03-20T11:47:59;9.50;;;9.00;;
60614;SDS011;46444;45.590;5.284;2023-03-20T11:53:01;9.65;;;8.95;;
60614;SDS011;46444;45.590;5.284;2023-03-20T11:55:29;6.60;;;6.18;;
60614;SDS011;46444;45.590;5.284;2023-03-20T11:57:57;7.68;;;7.07;;
60614;SDS011;46444;45.590;5.284;2023-03-20T12:00:27;5.78;;;5.38;;
60614;SDS011;46444;45.590;5.284;2023-03-20T12:02:59;5.88;;;5.35;;
60614;SDS011;46444;45.590;5.284;2023-03-20T12:11:02;4.97;;;4.45;;
60614;SDS011;46444;45.590;5.284;2023-03-20T12:13:42;3.47;;;3.28;;
60614;SDS011;46444;45.590;5.284;2023-03-20T12:16:12;3.83;;;3.53;;
60614;SDS011;46444;45.590;5.284;2023-03-20T12:18:48;3.10;;;2.90;;
60614;SDS011;46444;45.590;5.284;2023-03-20T12:26:56;2.70;;;2.47;;
60614;SDS011;46444;45.590;5.284;2023-03-20T12:29:34;2.60;;;2.40;;
60614;SDS011;46444;45.590;5.284;2023-03-20T12:32:09;2.42;;;2.22;;
60614;SDS011;46444;45.590;5.284;2023-03-20T12:34:50;2.40;;;2.20;;
60614;SDS011;46444;45.590;5.284;2023-03-20T12:37:36;2.42;;;2.20;;
60614;SDS011;46444;45.590;5.284;2023-03-20T12:40:02;4.82;;;3.72;;
60614;SDS011;46444;45.590;5.284;2023-03-20T12:47:39;2.53;;;2.33;;
60614;SDS011;46444;45.590;5.284;2023-03-20T12:53:03;5.22;;;3.25;;
60614;SDS011;46444;45.590;5.284;2023-03-20T13:06:23;2.03;;;1.52;;
60614;SDS011;46444;45.590;5.284;2023-03-20T13:14:57;2.88;;;2.58;;
60614;SDS011;46444;45.590;5.284;2023-03-20T13:17:46;1.90;;;1.70;;
60614;SDS011;46444;45.590;5.284;2023-03-20T13:20:20;2.63;;;2.42;;
60614;SDS011;46444;45.590;5.284;2023-03-20T13:28:44;3.40;;;2.47;;
60614;SDS011;46444;45.590;5.284;2023-03-20T13:31:27;2.15;;;1.90;;
60614;SDS011;46444;45.590;5.284;2023-03-20T13:34:10;1.60;;;1.50;;
60614;SDS011;46444;45.590;5.284;2023-03-20T13:39:23;3.38;;;2.28;;
60614;SDS011;46444;45.590;5.284;2023-03-20T13:41:55;2.10;;;1.30;;
60614;SDS011;46444;45.590;5.284;2023-03-20T13:44:23;3.05;;;1.70;;
60614;SDS011;46444;45.590;5.284;2023-03-20T13:47:05;3.03;;;1.45;;
60614;SDS011;46444;45.590;5.284;2023-03-20T13:49:37;1.77;;;1.50;;
60614;SDS011;46444;45.590;5.284;2023-03-20T14:00:30;2.38;;;1.95;;
60614;SDS011;46444;45.590;5.284;2023-03-20T14:05:43;3.17;;;2.55;;
60614;SDS011;46444;45.590;5.284;2023-03-20T14:10:54;2.30;;;1.10;;
60614;SDS011;46444;45.590;5.284;2023-03-20T14:13:29;1.55;;;1.30;;
60614;SDS011;46444;45.590;5.284;2023-03-20T14:15:57;1.30;;;1.20;;
60614;SDS011;46444;45.590;5.284;2023-03-20T14:18:26;1.27;;;1.02;;
60614;SDS011;46444;45.590;5.284;2023-03-20T14:21:08;2.88;;;1.30;;
60614;SDS011;46444;45.590;5.284;2023-03-20T14:23:41;1.50;;;1.38;;
60614;SDS011;46444;45.590;5.284;2023-03-20T14:28:51;1.45;;;1.10;;
60614;SDS011;46444;45.590;5.284;2023-03-20T14:31:23;2.38;;;1.20;;
60614;SDS011;46444;45.590;5.284;2023-03-20T14:33:58;1.48;;;0.90;;
60614;SDS011;46444;45.590;5.284;2023-03-20T14:36:57;1.55;;;1.20;;
60614;SDS011;46444;45.590;5.284;2023-03-20T14:42:17;1.55;;;1.10;;
60614;SDS011;46444;45.590;5.284;2023-03-20T14:44:46;2.33;;;0.80;;
60614;SDS011;46444;45.590;5.284;2023-03-20T14:47:43;1.20;;;1.10;;
60614;SDS011;46444;45.590;5.284;2023-03-20T14:50:26;1.85;;;1.20;;
60614;SDS011;46444;45.590;5.284;2023-03-20T14:57:52;2.83;;;1.50;;
60614;SDS011;46444;45.590;5.284;2023-03-20T15:00:21;1.77;;;1.30;;
60614;SDS011;46444;45.590;5.284;2023-03-20T15:02:52;1.65;;;1.25;;
60614;SDS011;46444;45.590;5.284;2023-03-20T15:08:23;1.58;;;1.48;;
60614;SDS011;46444;45.590;5.284;2023-03-20T15:10:50;1.60;;;1.40;;
60614;SDS011;46444;45.590;5.284;2023-03-20T15:13:19;2.25;;;1.45;;
60614;SDS011;46444;45.590;5.284;2023-03-20T15:15:59;2.55;;;1.10;;
60614;SDS011;46444;45.590;5.284;2023-03-20T15:18:35;1.92;;;1.60;;
60614;SDS011;46444;45.590;5.284;2023-03-20T15:21:02;1.95;;;1.85;;
60614;SDS011;46444;45.590;5.284;2023-03-20T15:23:27;2.22;;;1.88;;
60614;SDS011;46444;45.590;5.284;2023-03-20T15:25:53;4.95;;;2.30;;
60614;SDS011;46444;45.590;5.284;2023-03-20T15:28:25;1.80;;;1.38;;
60614;SDS011;46444;45.590;5.284;2023-03-20T15:30:52;1.63;;;1.40;;
60614;SDS011;46444;45.590;5.284;2023-03-20T15:33:25;2.80;;;2.50;;
60614;SDS011;46444;45.590;5.284;2023-03-20T15:35:53;3.15;;;2.95;;
60614;SDS011;46444;45.590;5.284;2023-03-20T15:38:19;3.05;;;2.80;;
60614;SDS011;46444;45.590;5.284;2023-03-20T15:40:45;3.75;;;2.75;;
60614;SDS011;46444;45.590;5.284;2023-03-20T15:45:42;2.70;;;2.50;;
60614;SDS011;46444;45.590;5.284;2023-03-20T15:48:15;2.80;;;2.60;;
60614;SDS011;46444;45.590;5.284;2023-03-20T15:50:42;2.60;;;2.50;;
60614;SDS011;46444;45.590;5.284;2023-03-20T15:53:14;2.72;;;2.53;;
60614;SDS011;46444;45.590;5.284;2023-03-20T15:55:46;4.05;;;2.55;;
60614;SDS011;46444;45.590;5.284;2023-03-20T15:58:13;2.60;;;2.40;;
60614;SDS011;46444;45.590;5.284;2023-03-20T16:00:43;2.20;;;2.10;;
60614;SDS011;46444;45.590;5.284;2023-03-20T16:05:38;2.20;;;2.10;;
60614;SDS011;46444;45.590;5.284;2023-03-20T16:08:12;2.50;;;2.10;;
60614;SDS011;46444;45.590;5.284;2023-03-20T16:10:41;2.85;;;1.90;;
60614;SDS011;46444;45.590;5.284;2023-03-20T16:13:13;3.15;;;2.20;;
60614;SDS011;46444;45.590;5.284;2023-03-20T16:15:42;2.08;;;1.80;;
60614;SDS011;46444;45.590;5.284;2023-03-20T16:18:09;2.10;;;2.00;;
60614;SDS011;46444;45.590;5.284;2023-03-20T16:20:39;2.00;;;1.75;;
60614;SDS011;46444;45.590;5.284;2023-03-20T16:23:13;2.05;;;1.60;;
60614;SDS011;46444;45.590;5.284;2023-03-20T16:28:39;1.80;;;1.70;;
60614;SDS011;46444;45.590;5.284;2023-03-20T16:34:00;22.58;;;11.40;;
60614;SDS011;46444;45.590;5.284;2023-03-20T16:36:31;3.95;;;3.42;;
60614;SDS011;46444;45.590;5.284;2023-03-20T16:41:30;5.18;;;4.85;;
60614;SDS011;46444;45.590;5.284;2023-03-20T16:43:58;2.72;;;1.70;;
60614;SDS011;46444;45.590;5.284;2023-03-20T16:46:25;1.60;;;1.50;;
60614;SDS011;46444;45.590;5.284;2023-03-20T16:48:55;1.40;;;1.30;;
60614;SDS011;46444;45.590;5.284;2023-03-20T16:51:24;1.35;;;1.25;;
60614;SDS011;46444;45.590;5.284;2023-03-20T16:53:55;5.55;;;1.10;;
60614;SDS011;46444;45.590;5.284;2023-03-20T16:58:57;2.47;;;1.20;;
60614;SDS011;46444;45.590;5.284;2023-03-20T17:01:23;2.38;;;1.40;;
60614;SDS011;46444;45.590;5.284;2023-03-20T17:03:53;2.42;;;1.30;;
60614;SDS011;46444;45.590;5.284;2023-03-20T17:11:16;2.80;;;1.30;;
60614;SDS011;46444;45.590;5.284;2023-03-20T17:16:24;1.95;;;1.38;;
60614;SDS011;46444;45.590;5.284;2023-03-20T17:18:59;3.28;;;1.60;;
60614;SDS011;46444;45.590;5.284;2023-03-20T17:21:26;1.85;;;1.30;;
60614;SDS011;46444;45.590;5.284;2023-03-20T17:23:52;1.45;;;1.27;;
60614;SDS011;46444;45.590;5.284;2023-03-20T17:26:21;3.03;;;1.52;;
60614;SDS011;46444;45.590;5.284;2023-03-20T17:28:56;2.33;;;1.45;;
60614;SDS011;46444;45.590;5.284;2023-03-20T17:31:28;2.38;;;1.50;;
60614;SDS011;46444;45.590;5.284;2023-03-20T17:33:53;1.52;;;1.25;;
60614;SDS011;46444;45.590;5.284;2023-03-20T17:36:37;2.72;;;1.80;;
60614;SDS011;46444;45.590;5.284;2023-03-20T17:39:06;2.45;;;1.73;;
60614;SDS011;46444;45.590;5.284;2023-03-20T17:41:31;2.83;;;2.00;;
60614;SDS011;46444;45.590;5.284;2023-03-20T17:43:57;3.95;;;2.22;;
60614;SDS011;46444;45.590;5.284;2023-03-20T17:46:24;3.20;;;2.60;;
60614;SDS011;46444;45.590;5.284;2023-03-20T17:48:54;6.90;;;3.15;;
60614;SDS011;46444;45.590;5.284;2023-03-20T17:51:23;4.72;;;3.55;;
60614;SDS011;46444;45.590;5.284;2023-03-20T17:54:11;8.65;;;4.45;;
60614;SDS011;46444;45.590;5.284;2023-03-20T17:56:37;5.00;;;4.50;;
60614;SDS011;46444;45.590;5.284;2023-03-20T17:59:08;6.78;;;6.20;;
60614;SDS011;46444;45.590;5.284;2023-03-20T18:01:41;7.25;;;6.55;;
60614;SDS011;46444;45.590;5.284;2023-03-20T18:04:08;8.43;;;7.60;;
60614;SDS011;46444;45.590;5.284;2023-03-20T18:06:33;6.93;;;6.43;;
60614;SDS011;46444;45.590;5.284;2023-03-20T18:09:10;6.10;;;5.53;;
60614;SDS011;46444;45.590;5.284;2023-03-20T18:11:38;7.38;;;6.63;;
60614;SDS011;46444;45.590;5.284;2023-03-20T18:14:04;9.23;;;8.52;;
60614;SDS011;46444;45.590;5.284;2023-03-20T18:16:30;8.30;;;7.70;;
60614;SDS011;46444;45.590;5.284;2023-03-20T18:18:56;11.43;;;10.68;;
60614;SDS011;46444;45.590;5.284;2023-03-20T18:21:24;15.20;;;14.20;;
60614;SDS011;46444;45.590;5.284;2023-03-20T18:23:49;14.18;;;12.98;;
60614;SDS011;46444;45.590;5.284;2023-03-20T18:26:22;14.45;;;12.98;;
60614;SDS011;46444;45.590;5.284;2023-03-20T18:28:51;12.60;;;11.30;;
60614;SDS011;46444;45.590;5.284;2023-03-20T18:31:17;14.68;;;13.18;;
60614;SDS011;46444;45.590;5.284;2023-03-20T18:33:47;14.73;;;13.20;;